Time;durP1;ratioP1;P1;durP2;ratioP2;P2;SDS_P1;SDS_P2;PMS_P1;PMS_P2;Temp;Humidity;BMP_temperature;BMP_pressure;BME280_temperature;BME280_humidity;BME280_pressure;Samples;Min_cycle;Max_cycle;Signal;HPM_P1;HPM_P2
2021/11/27 00:00:53;;;;;;;0.00;0.00;;;8.00;73.10;;;;;;5053618;28;20025;-76
2021/11/27 00:03:20;;;;;;;0.00;0.00;;;8.00;73.00;;;;;;5053572;28;20126;-76
2021/11/27 00:05:47;;;;;;;0.00;0.00;;;8.00;73.30;;;;;;5053618;28;20386;-76
2021/11/27 00:08:14;;;;;;;0.00;0.00;;;8.00;73.20;;;;;;5053531;28;20029;-77
2021/11/27 00:10:43;;;;;;;0.00;0.00;;;8.00;73.20;;;;;;5053238;28;20037;-76
2021/11/27 00:13:09;;;;;;;0.00;0.00;;;8.00;73.20;;;;;;5053433;28;20036;-77
2021/11/27 00:15:37;;;;;;;0.00;0.00;;;8.00;73.40;;;;;;5053455;28;20162;-76
2021/11/27 00:18:05;;;;;;;0.00;0.00;;;8.00;73.70;;;;;;5053321;28;20478;-76
2021/11/27 00:20:36;;;;;;;0.00;0.00;;;8.00;74.10;;;;;;5053493;28;20025;-76
2021/11/27 00:23:02;;;;;;;0.00;0.00;;;8.00;74.50;;;;;;5053562;28;20036;-77
2021/11/27 00:25:28;;;;;;;0.00;0.00;;;8.10;74.30;;;;;;5053258;28;20025;-76
2021/11/27 00:27:54;;;;;;;0.00;0.00;;;8.10;74.70;;;;;;5053465;28;20104;-76
2021/11/27 00:30:24;;;;;;;0.00;0.00;;;8.10;74.60;;;;;;5053235;28;20033;-77
2021/11/27 00:32:50;;;;;;;0.00;0.00;;;8.10;75.00;;;;;;5053068;28;20033;-77
2021/11/27 00:35:19;;;;;;;0.00;0.00;;;8.20;74.90;;;;;;5053510;28;20032;-78
2021/11/27 00:37:45;;;;;;;0.00;0.00;;;8.20;74.90;;;;;;5053297;28;20025;-78
2021/11/27 00:40:12;;;;;;;0.00;0.00;;;8.20;75.50;;;;;;5053070;28;20017;-79
2021/11/27 00:42:38;;;;;;;0.00;0.00;;;8.20;75.40;;;;;;5053243;28;20099;-75
2021/11/27 00:45:10;;;;;;;0.00;0.00;;;8.20;76.00;;;;;;5053204;28;20025;-77
2021/11/27 00:47:41;;;;;;;0.00;0.00;;;8.20;76.00;;;;;;5053348;28;20433;-78
2021/11/27 00:50:07;;;;;;;0.00;0.00;;;8.10;76.50;;;;;;5053096;28;20049;-76
2021/11/27 00:52:33;;;;;;;0.00;0.00;;;8.20;76.90;;;;;;5052622;28;20032;-76
2021/11/27 00:54:59;;;;;;;0.00;0.00;;;8.20;76.80;;;;;;5052805;28;20070;-77
2021/11/27 00:57:25;;;;;;;0.00;0.00;;;8.20;77.40;;;;;;5052989;28;20434;-76
2021/11/27 00:59:51;;;;;;;0.00;0.00;;;8.20;77.70;;;;;;5052869;28;20034;-76
2021/11/27 01:02:17;;;;;;;0.00;0.00;;;8.20;77.50;;;;;;5052637;28;20033;-76
2021/11/27 01:04:43;;;;;;;0.00;0.00;;;8.20;78.00;;;;;;5053108;28;20078;-76
2021/11/27 01:07:09;;;;;;;0.00;0.00;;;8.20;78.40;;;;;;5052843;28;20033;-76
2021/11/27 01:09:36;;;;;;;0.00;0.00;;;8.10;78.60;;;;;;5052847;28;20025;-76
2021/11/27 01:12:02;;;;;;;0.00;0.00;;;8.10;78.40;;;;;;5052564;28;20087;-76
2021/11/27 01:14:29;;;;;;;0.00;0.00;;;8.10;78.30;;;;;;5052813;28;20507;-76
2021/11/27 01:16:58;;;;;;;0.00;0.00;;;8.10;78.10;;;;;;5054276;28;20039;-76
2021/11/27 01:19:24;;;;;;;0.00;0.00;;;8.10;78.80;;;;;;5056735;28;20150;-76
2021/11/27 01:21:56;;;;;;;0.00;0.00;;;8.10;79.00;;;;;;5056695;28;20029;-76
2021/11/27 01:24:25;;;;;;;0.00;0.00;;;8.20;78.70;;;;;;5056375;28;20213;-76
2021/11/27 01:26:53;;;;;;;0.00;0.00;;;8.20;78.50;;;;;;5056421;28;20094;-76
2021/11/27 01:29:20;;;;;;;0.00;0.00;;;8.10;79.00;;;;;;5039058;28;20394;-77
2021/11/27 01:31:45;;;;;;;0.00;0.00;;;8.10;78.70;;;;;;5056377;28;20029;-77
2021/11/27 01:34:11;;;;;;;0.00;0.00;;;8.10;79.30;;;;;;5055987;28;20033;-76
2021/11/27 01:36:38;;;;;;;0.00;0.00;;;8.10;79.00;;;;;;5055909;28;20021;-77
2021/11/27 01:39:05;;;;;;;0.00;0.00;;;8.10;79.40;;;;;;5056101;28;20469;-77
2021/11/27 01:41:32;;;;;;;0.00;0.00;;;8.10;80.00;;;;;;5056099;28;20095;-77
2021/11/27 01:43:58;;;;;;;0.00;0.00;;;8.00;79.70;;;;;;5055735;28;20558;-77
2021/11/27 01:46:24;;;;;;;0.00;0.00;;;8.00;80.20;;;;;;5056002;28;20060;-77
2021/11/27 01:48:50;;;;;;;0.00;0.00;;;8.00;80.80;;;;;;5055971;28;20030;-77
2021/11/27 01:51:20;;;;;;;0.00;0.00;;;8.00;81.10;;;;;;5055794;28;20017;-77
2021/11/27 01:53:58;;;;;;;0.00;0.00;;;8.00;81.50;;;;;;5055652;28;20171;-77
2021/11/27 01:56:27;;;;;;;0.00;0.00;;;7.90;81.10;;;;;;5055795;28;20029;-77
2021/11/27 01:58:53;;;;;;;0.00;0.00;;;7.90;81.10;;;;;;5056003;28;20115;-77
2021/11/27 02:01:25;;;;;;;0.00;0.00;;;7.90;80.90;;;;;;5055343;28;20025;-77
2021/11/27 02:03:51;;;;;;;0.00;0.00;;;7.90;81.60;;;;;;5055820;28;20032;-77
2021/11/27 02:06:20;;;;;;;0.00;0.00;;;8.00;81.50;;;;;;5055552;28;20390;-77
2021/11/27 02:08:49;;;;;;;0.00;0.00;;;8.00;81.30;;;;;;5055836;28;20043;-77
2021/11/27 02:11:24;;;;;;;0.00;0.00;;;8.00;82.10;;;;;;5055236;28;20481;-76
2021/11/27 02:13:50;;;;;;;0.00;0.00;;;8.00;81.90;;;;;;5055334;28;20043;-77
2021/11/27 02:16:16;;;;;;;0.00;0.00;;;8.00;82.40;;;;;;5055451;28;20103;-77
2021/11/27 02:18:41;;;;;;;0.00;0.00;;;8.00;82.90;;;;;;5055513;28;20029;-77
2021/11/27 02:21:10;;;;;;;0.00;0.00;;;8.00;83.10;;;;;;5055350;28;20459;-77
2021/11/27 02:23:37;;;;;;;0.00;0.00;;;8.00;82.90;;;;;;5055347;28;20028;-77
2021/11/27 02:26:06;;;;;;;0.00;0.00;;;8.00;83.50;;;;;;5055394;28;20091;-77
2021/11/27 02:28:34;;;;;;;0.00;0.00;;;8.00;83.20;;;;;;5053763;28;20031;-77
2021/11/27 02:31:01;;;;;;;0.00;0.00;;;8.00;83.70;;;;;;5055271;28;20082;-77
2021/11/27 02:33:27;;;;;;;0.00;0.00;;;8.00;84.00;;;;;;5054768;28;20068;-77
2021/11/27 02:35:53;;;;;;;0.00;0.00;;;8.10;84.40;;;;;;5054952;28;20040;-77
2021/11/27 02:38:19;;;;;;;0.00;0.00;;;8.10;84.40;;;;;;5055060;28;20116;-77
2021/11/27 02:40:45;;;;;;;0.00;0.00;;;8.10;84.70;;;;;;5053772;28;20025;-77
2021/11/27 02:43:11;;;;;;;0.00;0.00;;;8.10;85.00;;;;;;5053607;28;20064;-77
2021/11/27 02:45:37;;;;;;;0.00;0.00;;;8.20;84.60;;;;;;5054902;28;20078;-77
2021/11/27 02:48:04;;;;;;;0.00;0.00;;;8.10;85.50;;;;;;5054957;28;20478;-77
2021/11/27 02:50:30;;;;;;;0.00;0.00;;;8.20;85.10;;;;;;5054803;28;20032;-77
2021/11/27 02:52:56;;;;;;;0.00;0.00;;;8.30;85.00;;;;;;5054385;28;20040;-77
2021/11/27 02:55:22;;;;;;;0.00;0.00;;;8.30;85.60;;;;;;5054705;28;20021;-77
2021/11/27 02:57:48;;;;;;;0.00;0.00;;;8.30;85.90;;;;;;5053440;28;20028;-77
2021/11/27 03:00:18;;;;;;;0.00;0.00;;;8.30;85.50;;;;;;5054698;28;20459;-77
2021/11/27 03:02:44;;;;;;;0.00;0.00;;;8.40;86.50;;;;;;5054644;28;20057;-77
2021/11/27 03:05:10;;;;;;;0.00;0.00;;;8.40;86.10;;;;;;5054718;28;20469;-77
2021/11/27 03:07:36;;;;;;;0.00;0.00;;;8.40;87.10;;;;;;5054422;28;20036;-77
2021/11/27 03:10:04;;;;;;;0.00;0.00;;;8.40;87.50;;;;;;5054455;28;20033;-77
2021/11/27 03:12:30;;;;;;;0.00;0.00;;;8.50;87.20;;;;;;5054554;28;20036;-76
2021/11/27 03:14:56;;;;;;;0.00;0.00;;;8.50;87.10;;;;;;5054511;28;20025;-77
2021/11/27 03:17:21;;;;;;;0.00;0.00;;;8.50;88.50;;;;;;5054315;28;20431;-77
2021/11/27 03:19:47;;;;;;;0.00;0.00;;;8.60;89.00;;;;;;5054248;28;20025;-77
2021/11/27 03:22:16;;;;;;;0.00;0.00;;;8.60;88.50;;;;;;5054191;28;20032;-76
2021/11/27 03:24:42;;;;;;;0.00;0.00;;;8.60;89.60;;;;;;5052910;28;20040;-77
2021/11/27 03:27:08;;;;;;;0.00;0.00;;;8.70;89.30;;;;;;5054162;28;20032;-77
2021/11/27 03:29:36;;;;;;;0.00;0.00;;;8.70;90.00;;;;;;5054631;28;20071;-76
2021/11/27 03:32:05;;;;;;;0.00;0.00;;;8.70;90.30;;;;;;5054144;28;20412;-76
2021/11/27 03:34:31;;;;;;;0.00;0.00;;;8.80;90.40;;;;;;5053581;28;20032;-77
2021/11/27 03:36:57;;;;;;;0.00;0.00;;;8.90;90.50;;;;;;5054042;28;20025;-77
2021/11/27 03:39:23;;;;;;;0.00;0.00;;;8.90;90.60;;;;;;5053849;28;20036;-77
2021/11/27 03:41:48;;;;;;;0.00;0.00;;;8.90;90.50;;;;;;5053982;28;20021;-77
2021/11/27 03:44:15;;;;;;;0.00;0.00;;;8.90;91.00;;;;;;5054137;28;20119;-77
2021/11/27 03:46:41;;;;;;;0.00;0.00;;;8.90;91.10;;;;;;5053856;28;20108;-77
2021/11/27 03:49:07;;;;;;;0.00;0.00;;;9.00;91.40;;;;;;5053801;28;20378;-76
2021/11/27 03:51:32;;;;;;;0.00;0.00;;;9.00;91.70;;;;;;5054051;28;20035;-77
2021/11/27 03:53:58;;;;;;;0.00;0.00;;;9.00;91.50;;;;;;5053840;28;20035;-77
2021/11/27 03:56:27;;;;;;;0.00;0.00;;;9.10;91.80;;;;;;5053686;28;20409;-77
2021/11/27 03:58:55;;;;;;;0.00;0.00;;;9.10;91.80;;;;;;5052420;28;20040;-77
2021/11/27 04:01:21;;;;;;;0.00;0.00;;;9.10;92.00;;;;;;5053399;28;20486;-77
2021/11/27 04:03:49;;;;;;;0.00;0.00;;;9.10;92.10;;;;;;5053203;28;20456;-76
2021/11/27 04:06:15;;;;;;;0.00;0.00;;;9.10;92.20;;;;;;5053463;28;20052;-76
2021/11/27 04:08:41;;;;;;;0.00;0.00;;;9.10;92.10;;;;;;5053344;28;20025;-77
2021/11/27 04:11:07;;;;;;;0.00;0.00;;;9.10;92.20;;;;;;5053700;28;20021;-77
2021/11/27 04:13:33;;;;;;;0.00;0.00;;;9.20;92.60;;;;;;5053262;28;20041;-76
2021/11/27 04:16:01;;;;;;;0.00;0.00;;;9.20;92.60;;;;;;5053643;28;20064;-76
2021/11/27 04:18:27;;;;;;;0.00;0.00;;;9.10;92.80;;;;;;5053488;28;20471;-77
2021/11/27 04:20:52;;;;;;;0.00;0.00;;;9.10;93.10;;;;;;5053392;28;20036;-76
2021/11/27 04:23:19;;;;;;;0.00;0.00;;;9.20;93.50;;;;;;5053349;28;20044;-77
2021/11/27 04:25:45;;;;;;;0.00;0.00;;;9.10;93.80;;;;;;5053298;28;20025;-77
2021/11/27 04:28:11;;;;;;;0.00;0.00;;;9.10;94.00;;;;;;5053617;28;20374;-77
2021/11/27 04:30:37;;;;;;;0.00;0.00;;;9.10;94.00;;;;;;5053326;28;20029;-77
2021/11/27 04:33:03;;;;;;;0.00;0.00;;;9.10;94.30;;;;;;5053425;28;20418;-77
2021/11/27 04:35:31;;;;;;;0.00;0.00;;;9.10;94.40;;;;;;5053210;28;20431;-77
2021/11/27 04:37:57;;;;;;;0.00;0.00;;;9.10;94.40;;;;;;5053513;28;20021;-77
2021/11/27 04:40:24;;;;;;;0.00;0.00;;;9.10;94.60;;;;;;5053249;28;20074;-77
2021/11/27 04:42:50;;;;;;;0.00;0.00;;;9.10;94.70;;;;;;5053131;28;20076;-77
2021/11/27 04:45:17;;;;;;;0.00;0.00;;;9.10;94.70;;;;;;5053097;28;20071;-77
2021/11/27 04:47:42;;;;;;;0.00;0.00;;;9.10;95.00;;;;;;5053287;28;20025;-77
2021/11/27 04:50:10;;;;;;;0.00;0.00;;;9.10;95.00;;;;;;5053425;28;20025;-77
2021/11/27 04:52:36;;;;;;;0.00;0.00;;;9.10;95.10;;;;;;5054355;28;20021;-77
2021/11/27 04:55:05;;;;;;;0.00;0.00;;;9.10;95.20;;;;;;5057141;28;20470;-77
2021/11/27 04:57:30;;;;;;;0.00;0.00;;;9.10;95.10;;;;;;5056860;28;20025;-77
2021/11/27 04:59:56;;;;;;;0.00;0.00;;;9.20;95.20;;;;;;5057276;28;20422;-77
2021/11/27 05:02:22;;;;;;;0.00;0.00;;;9.20;95.40;;;;;;5055632;28;20032;-77
2021/11/27 05:04:48;;;;;;;0.00;0.00;;;9.20;95.70;;;;;;5056684;28;20055;-76
2021/11/27 05:07:14;;;;;;;0.00;0.00;;;9.20;95.60;;;;;;5056741;28;20086;-77
2021/11/27 05:09:40;;;;;;;0.00;0.00;;;9.30;95.80;;;;;;5056914;28;20482;-77
2021/11/27 05:12:07;;;;;;;0.00;0.00;;;9.30;95.80;;;;;;5056615;28;20032;-77
2021/11/27 05:14:33;;;;;;;0.00;0.00;;;9.40;96.00;;;;;;5055347;28;20033;-77
2021/11/27 05:16:59;;;;;;;0.00;0.00;;;9.40;95.90;;;;;;5056684;28;20032;-77
2021/11/27 05:19:25;;;;;;;0.00;0.00;;;9.40;96.00;;;;;;5056589;28;20036;-77
2021/11/27 05:21:51;;;;;;;0.00;0.00;;;9.50;96.00;;;;;;5056489;28;20375;-77
2021/11/27 05:24:17;;;;;;;0.03;0.00;;;9.50;96.00;;;;;;5056497;28;20036;-77
2021/11/27 05:26:43;;;;;;;0.00;0.00;;;9.60;95.90;;;;;;5055962;28;20495;-77
2021/11/27 05:29:09;;;;;;;0.00;0.00;;;9.60;95.70;;;;;;5056387;28;20048;-77
2021/11/27 05:31:34;;;;;;;0.00;0.00;;;9.60;95.90;;;;;;5056575;28;20029;-77
2021/11/27 05:36:31;;;;;;;0.00;0.00;;;9.70;96.00;;;;;;5056247;28;20021;-78
2021/11/27 05:38:58;;;;;;;0.00;0.00;;;9.70;96.00;;;;;;5056056;28;20036;-77
2021/11/27 05:41:26;;;;;;;0.00;0.00;;;9.80;96.20;;;;;;5056213;28;20095;-78
2021/11/27 05:43:55;;;;;;;0.00;0.00;;;9.80;96.20;;;;;;5055784;28;20096;-79
2021/11/27 05:46:21;;;;;;;0.10;0.10;;;9.80;96.30;;;;;;5055999;28;20021;-79
2021/11/27 05:48:47;;;;;;;0.00;0.00;;;9.90;96.30;;;;;;5055971;28;20048;-76
2021/11/27 05:51:13;;;;;;;0.00;0.00;;;9.90;96.30;;;;;;5056181;28;20029;-79
2021/11/27 05:53:40;;;;;;;0.10;0.10;;;10.00;96.30;;;;;;5055473;28;20543;-79
2021/11/27 05:56:06;;;;;;;0.10;0.10;;;10.00;96.20;;;;;;5055686;28;20021;-78
2021/11/27 05:58:32;;;;;;;0.00;0.00;;;10.00;96.20;;;;;;5055440;28;20098;-79
2021/11/27 06:01:04;;;;;;;0.10;0.10;;;10.00;96.20;;;;;;5056063;28;20035;-77
2021/11/27 06:03:30;;;;;;;0.00;0.00;;;10.10;96.30;;;;;;5055514;28;20033;-78
2021/11/27 06:05:56;;;;;;;0.00;0.00;;;10.10;96.30;;;;;;5054249;28;20510;-77
2021/11/27 06:08:22;;;;;;;0.00;0.00;;;10.10;96.30;;;;;;5056253;28;20130;-77
2021/11/27 06:10:48;;;;;;;0.00;0.00;;;10.20;96.20;;;;;;5055345;28;20155;-79
2021/11/27 06:13:13;;;;;;;0.10;0.10;;;10.20;96.10;;;;;;5055497;28;20039;-78
2021/11/27 06:15:39;;;;;;;0.00;0.00;;;10.20;96.20;;;;;;5055315;28;20029;-80
2021/11/27 06:18:05;;;;;;;0.10;0.10;;;10.20;96.20;;;;;;5054274;28;20029;-78
2021/11/27 06:20:31;;;;;;;0.10;0.10;;;10.30;96.10;;;;;;5055213;28;20477;-79
2021/11/27 06:22:57;;;;;;;0.00;0.00;;;10.30;96.00;;;;;;5055060;28;20108;-78
2021/11/27 06:25:23;;;;;;;0.00;0.00;;;10.30;96.10;;;;;;5055032;28;20080;-78
2021/11/27 06:27:50;;;;;;;0.00;0.00;;;10.30;96.10;;;;;;5055173;28;20028;-78
2021/11/27 06:30:16;;;;;;;0.00;0.00;;;10.30;96.00;;;;;;5055244;28;20074;-78
2021/11/27 06:32:41;;;;;;;0.00;0.00;;;10.40;96.20;;;;;;5055099;28;20418;-80
2021/11/27 06:35:07;;;;;;;0.10;0.10;;;10.40;96.10;;;;;;5055587;28;20035;-79
2021/11/27 06:37:33;;;;;;;0.00;0.00;;;10.40;96.30;;;;;;5054771;28;20031;-77
2021/11/27 06:40:00;;;;;;;0.10;0.10;;;10.40;96.40;;;;;;5054009;28;20025;-78
2021/11/27 06:42:27;;;;;;;0.10;0.10;;;10.50;96.20;;;;;;5054815;28;20479;-79
2021/11/27 06:44:53;;;;;;;0.00;0.00;;;10.50;96.20;;;;;;5054789;28;20032;-77
2021/11/27 06:47:21;;;;;;;0.00;0.00;;;10.50;96.20;;;;;;5053613;28;20058;-79
2021/11/27 06:49:48;;;;;;;0.00;0.00;;;10.50;96.40;;;;;;5054649;28;20024;-79
2021/11/27 06:52:15;;;;;;;0.00;0.00;;;10.60;96.50;;;;;;5055132;28;20102;-79
2021/11/27 06:54:41;;;;;;;0.00;0.00;;;10.60;96.60;;;;;;5054762;28;20033;-79
2021/11/27 06:57:08;;;;;;;0.00;0.00;;;10.70;96.60;;;;;;5054797;28;20098;-79
2021/11/27 06:59:35;;;;;;;0.00;0.00;;;10.70;96.60;;;;;;5054630;28;20028;-78
2021/11/27 07:02:01;;;;;;;0.00;0.00;;;10.70;96.90;;;;;;5054797;28;20379;-78
2021/11/27 07:04:27;;;;;;;0.00;0.00;;;10.80;96.60;;;;;;5054484;28;20048;-78
2021/11/27 07:06:53;;;;;;;0.00;0.00;;;10.80;96.60;;;;;;5054563;28;20032;-79
2021/11/27 07:09:19;;;;;;;0.00;0.00;;;10.90;96.50;;;;;;5053231;28;20025;-79
2021/11/27 07:11:45;;;;;;;0.00;0.00;;;10.90;96.20;;;;;;5053923;28;20387;-80
2021/11/27 07:14:11;;;;;;;0.00;0.00;;;10.90;96.10;;;;;;5053799;28;20033;-79
2021/11/27 07:16:37;;;;;;;0.00;0.00;;;10.90;96.00;;;;;;5054286;28;20029;-80
2021/11/27 07:19:03;;;;;;;0.10;0.10;;;10.90;96.00;;;;;;5052784;28;20074;-80
2021/11/27 07:21:29;;;;;;;0.00;0.00;;;10.90;96.00;;;;;;5053821;28;20017;-79
2021/11/27 07:23:55;;;;;;;0.00;0.00;;;10.90;96.00;;;;;;5053470;28;20032;-78
2021/11/27 07:26:21;;;;;;;0.00;0.00;;;10.90;96.00;;;;;;5053708;28;20155;-78
2021/11/27 07:28:47;;;;;;;0.10;0.10;;;10.90;96.40;;;;;;5053360;28;20032;-80
2021/11/27 07:31:14;;;;;;;0.00;0.00;;;10.90;96.70;;;;;;5054041;28;20032;-78
2021/11/27 07:33:39;;;;;;;0.00;0.00;;;11.00;96.70;;;;;;5053819;28;20037;-80
2021/11/27 07:36:05;;;;;;;0.00;0.00;;;11.00;96.60;;;;;;5053968;28;20025;-79
2021/11/27 07:38:32;;;;;;;0.10;0.10;;;11.10;96.70;;;;;;5053814;28;20082;-78
2021/11/27 07:40:58;;;;;;;0.10;0.10;;;11.10;96.40;;;;;;5053996;28;20039;-80
2021/11/27 07:43:24;;;;;;;0.00;0.00;;;11.20;96.30;;;;;;5053895;28;20045;-81
2021/11/27 07:45:50;;;;;;;0.00;0.00;;;11.20;96.10;;;;;;5052505;28;20032;-78
2021/11/27 07:48:16;;;;;;;0.10;0.10;;;11.20;96.20;;;;;;5053949;28;20021;-78
2021/11/27 07:50:42;;;;;;;0.00;0.00;;;11.20;96.50;;;;;;5053742;28;20572;-78
2021/11/27 07:53:08;;;;;;;0.00;0.00;;;11.30;96.60;;;;;;5053547;28;20033;-79
2021/11/27 07:55:34;;;;;;;0.10;0.00;;;11.30;96.50;;;;;;5053350;28;20021;-77
2021/11/27 07:58:00;;;;;;;0.00;0.00;;;11.40;96.40;;;;;;5053300;28;20029;-77
2021/11/27 08:00:25;;;;;;;0.00;0.00;;;11.40;96.80;;;;;;5053340;28;20040;-78
2021/11/27 08:02:51;;;;;;;0.00;0.00;;;11.40;96.50;;;;;;5050338;28;20120;-79
2021/11/27 08:05:17;;;;;;;0.00;0.00;;;11.50;96.60;;;;;;5053359;28;20379;-78
2021/11/27 08:07:43;;;;;;;0.00;0.00;;;11.50;96.80;;;;;;5053083;28;20025;-77
2021/11/27 08:10:11;;;;;;;0.00;0.00;;;11.60;96.60;;;;;;5052452;28;20037;-78
2021/11/27 08:12:36;;;;;;;0.00;0.00;;;11.60;96.50;;;;;;5053557;28;20352;-77
2021/11/27 08:15:04;;;;;;;0.00;0.00;;;11.60;96.60;;;;;;5053293;28;20039;-78
2021/11/27 08:17:30;;;;;;;0.00;0.00;;;11.60;96.30;;;;;;5053186;28;20087;-78
2021/11/27 08:19:56;;;;;;;0.00;0.00;;;11.70;96.30;;;;;;5053216;28;20029;-78
2021/11/27 08:22:22;;;;;;;0.00;0.00;;;11.70;96.30;;;;;;5053329;28;20105;-79
2021/11/27 08:24:49;;;;;;;0.00;0.00;;;11.70;96.40;;;;;;5053182;28;20029;-79
2021/11/27 08:27:16;;;;;;;0.00;0.00;;;11.70;96.70;;;;;;5057129;28;20056;-80
2021/11/27 08:29:42;;;;;;;0.00;0.00;;;11.70;96.50;;;;;;5057549;28;20028;-81
2021/11/27 08:32:08;;;;;;;0.00;0.00;;;11.80;96.50;;;;;;5057457;28;20033;-79
2021/11/27 08:34:33;;;;;;;0.00;0.00;;;11.80;96.40;;;;;;5056903;28;20041;-79
2021/11/27 08:36:59;;;;;;;0.00;0.00;;;11.90;96.30;;;;;;5056626;28;20021;-79
2021/11/27 08:39:25;;;;;;;0.00;0.00;;;11.90;96.50;;;;;;5056959;28;20021;-79
2021/11/27 08:41:51;;;;;;;0.00;0.00;;;11.90;96.70;;;;;;5057310;28;20021;-79
2021/11/27 08:44:16;;;;;;;0.00;0.00;;;12.00;96.50;;;;;;5055898;28;20033;-79
2021/11/27 08:46:42;;;;;;;0.00;0.00;;;12.00;96.90;;;;;;5055836;28;20033;-84
2021/11/27 08:49:09;;;;;;;0.00;0.00;;;12.10;97.10;;;;;;5057478;28;20027;-79
2021/11/27 08:51:38;;;;;;;0.00;0.00;;;12.20;96.80;;;;;;5057259;28;20048;-78
2021/11/27 08:54:04;;;;;;;0.00;0.00;;;12.20;96.70;;;;;;5056730;28;20028;-77
2021/11/27 08:56:30;;;;;;;0.00;0.00;;;12.30;96.00;;;;;;5057145;28;20451;-78
2021/11/27 08:58:56;;;;;;;0.00;0.00;;;12.30;96.00;;;;;;5056534;28;20099;-77
2021/11/27 09:01:22;;;;;;;0.00;0.00;;;12.30;95.70;;;;;;5057058;28;20112;-78
2021/11/27 09:03:48;;;;;;;0.00;0.00;;;12.30;96.10;;;;;;5056507;28;20028;-78
2021/11/27 09:06:14;;;;;;;0.00;0.00;;;12.40;97.00;;;;;;5056519;28;20442;-78
2021/11/27 09:08:42;;;;;;;0.00;0.00;;;12.80;99.50;;;;;;5055782;28;20447;-78
2021/11/27 09:11:10;;;;;;;0.00;0.00;;;13.10;98.20;;;;;;5056421;28;20399;-78
2021/11/27 09:13:37;;;;;;;0.00;0.00;;;13.20;96.40;;;;;;5056753;28;20084;-79
2021/11/27 09:16:04;;;;;;;0.00;0.00;;;13.20;95.60;;;;;;5056450;28;20091;-78
2021/11/27 09:18:32;;;;;;;0.00;0.00;;;13.20;94.40;;;;;;5056584;28;20033;-78
2021/11/27 09:20:58;;;;;;;0.00;0.00;;;13.20;94.40;;;;;;5056421;28;20021;-78
2021/11/27 09:23:24;;;;;;;0.00;0.00;;;13.10;94.90;;;;;;5056148;28;20028;-79
2021/11/27 09:25:50;;;;;;;0.00;0.00;;;13.30;97.10;;;;;;5056169;28;20083;-79
2021/11/27 09:28:16;;;;;;;0.00;0.00;;;13.60;96.10;;;;;;5056317;28;20096;-78
2021/11/27 09:30:41;;;;;;;0.00;0.00;;;13.90;97.50;;;;;;5056388;28;20036;-78
2021/11/27 09:33:07;;;;;;;0.00;0.00;;;14.70;98.40;;;;;;5055967;28;20032;-81
2021/11/27 09:35:33;;;;;;;0.00;0.00;;;15.20;96.50;;;;;;5056414;28;20029;-79
2021/11/27 09:37:59;;;;;;;0.00;0.00;;;15.50;94.30;;;;;;5055823;28;20147;-78
2021/11/27 09:40:25;;;;;;;0.00;0.00;;;16.10;94.60;;;;;;5056906;28;20503;-80
2021/11/27 09:55:38;;;;;;;0.00;0.00;;;17.50;91.70;;;;;;4989971;28;20408;-73
2021/11/27 09:58:04;;;;;;;0.00;0.00;;;18.20;73.80;;;;;;5006589;28;20114;-72
2021/11/27 10:00:29;;;;;;;0.00;0.00;;;18.60;74.00;;;;;;4990124;28;20540;-72
2021/11/27 10:02:56;;;;;;;0.00;0.00;;;18.90;74.60;;;;;;4991317;28;20032;-73
2021/11/27 10:05:23;;;;;;;0.00;0.00;;;19.00;73.70;;;;;;4990237;28;20081;-72
2021/11/27 10:07:52;;;;;;;0.00;0.00;;;18.80;73.10;;;;;;4987535;28;20111;-74
2021/11/27 10:10:18;;;;;;;0.00;0.00;;;18.40;72.90;;;;;;4991253;28;20023;-73
2021/11/27 10:12:44;;;;;;;0.00;0.00;;;18.00;73.60;;;;;;4991617;28;20029;-73
2021/11/27 10:15:11;;;;;;;0.00;0.00;;;17.50;72.80;;;;;;4990860;28;20109;-74
2021/11/27 10:17:37;;;;;;;0.00;0.00;;;17.20;72.90;;;;;;4989988;28;20077;-71
2021/11/27 10:20:08;;;;;;;0.00;0.00;;;17.10;76.10;;;;;;4989987;28;20464;-72
2021/11/27 10:22:47;;;;;;;0.00;0.00;;;17.10;74.00;;;;;;4989642;28;20085;-73
2021/11/27 10:25:25;;;;;;;0.00;0.00;;;16.90;73.30;;;;;;4991113;28;20045;-72
2021/11/27 10:27:52;;;;;;;0.00;0.00;;;16.70;74.00;;;;;;4989585;28;20031;-72
2021/11/27 10:30:18;;;;;;;0.00;0.00;;;16.60;74.50;;;;;;4990797;28;20027;-74
2021/11/27 10:32:46;;;;;;;0.00;0.00;;;16.50;74.40;;;;;;4991048;28;20404;-73
2021/11/27 10:35:19;;;;;;;0.00;0.00;;;16.60;78.00;;;;;;4990897;28;20038;-74
2021/11/27 10:37:51;;;;;;;0.00;0.00;;;16.80;79.80;;;;;;4990674;28;20448;-73
2021/11/27 10:40:21;;;;;;;0.00;0.00;;;17.40;81.70;;;;;;4989773;28;20384;-73
2021/11/27 10:43:06;;;;;;;0.00;0.00;;;18.30;75.60;;;;;;4990900;28;20030;-73
2021/11/27 10:45:35;;;;;;;0.00;0.00;;;18.80;75.70;;;;;;4990609;28;20027;-72
2021/11/27 10:48:12;;;;;;;0.00;0.00;;;19.30;74.90;;;;;;4990228;28;20038;-73
2021/11/27 10:50:47;;;;;;;0.00;0.00;;;19.50;73.70;;;;;;4990340;28;20031;-74
2021/11/27 10:53:15;;;;;;;0.00;0.00;;;19.80;74.00;;;;;;4982027;28;20173;-73
2021/11/27 10:55:42;;;;;;;0.00;0.00;;;20.30;72.10;;;;;;4971554;28;20030;-74
2021/11/27 10:58:09;;;;;;;0.00;0.00;;;20.50;70.40;;;;;;4965550;28;20413;-74
2021/11/27 11:00:58;;;;;;;0.00;0.00;;;20.20;68.70;;;;;;4966806;28;20019;-74
2021/11/27 11:03:37;;;;;;;0.00;0.00;;;19.40;68.70;;;;;;4967048;28;20046;-75
2021/11/27 11:06:19;;;;;;;0.00;0.00;;;18.70;69.60;;;;;;4965286;28;20457;-73
2021/11/27 11:08:48;;;;;;;0.00;0.00;;;18.20;71.50;;;;;;4956880;29;20027;-73
2021/11/27 11:11:20;;;;;;;0.00;0.00;;;17.90;72.80;;;;;;4964386;28;20074;-76
2021/11/27 11:13:52;;;;;;;0.00;0.00;;;17.50;70.60;;;;;;4966150;28;20031;-74
2021/11/27 11:16:18;;;;;;;0.00;0.00;;;17.30;71.00;;;;;;4967177;28;20096;-74
2021/11/27 11:18:45;;;;;;;0.00;0.00;;;17.50;71.30;;;;;;4965885;28;20083;-74
2021/11/27 11:21:12;;;;;;;0.00;0.00;;;17.70;70.00;;;;;;4950250;28;20042;-74
2021/11/27 11:23:40;;;;;;;0.00;0.00;;;17.80;69.10;;;;;;4960116;28;20365;-73
2021/11/27 11:26:20;;;;;;;0.00;0.00;;;17.60;68.90;;;;;;4962190;28;20066;-73
2021/11/27 11:28:53;;;;;;;0.00;0.00;;;17.40;68.50;;;;;;4962306;28;20027;-72
2021/11/27 11:31:31;;;;;;;0.00;0.00;;;17.00;68.90;;;;;;4962272;28;20126;-73
2021/11/27 11:33:59;;;;;;;0.00;0.00;;;16.60;69.80;;;;;;4964955;28;20030;-74
2021/11/27 11:36:26;;;;;;;0.00;0.00;;;16.30;70.90;;;;;;4966194;28;20023;-73
2021/11/27 11:38:57;;;;;;;0.00;0.00;;;16.10;71.60;;;;;;4966738;28;20019;-73
2021/11/27 11:41:25;;;;;;;0.00;0.00;;;15.90;72.00;;;;;;4965567;28;20023;-74
2021/11/27 11:43:53;;;;;;;0.00;0.00;;;15.80;72.80;;;;;;4966860;28;20042;-76
2021/11/27 11:49:41;;;;;;;0.00;0.00;;;15.80;73.80;;;;;;4960970;28;20094;-73
2021/11/27 11:52:11;;;;;;;0.00;0.00;;;15.90;74.80;;;;;;4956807;29;20019;-73
2021/11/27 11:54:38;;;;;;;0.00;0.00;;;15.90;76.90;;;;;;4958936;28;20106;-74
2021/11/27 11:57:09;;;;;;;0.00;0.00;;;15.90;75.40;;;;;;4957124;29;20042;-73
2021/11/27 11:59:40;;;;;;;0.00;0.00;;;15.80;74.50;;;;;;4956078;28;20028;-73
2021/11/27 12:02:12;;;;;;;0.00;0.00;;;16.00;75.20;;;;;;4959387;28;20023;-73
2021/11/27 12:04:59;;;;;;;0.00;0.00;;;16.20;78.00;;;;;;4964845;28;20039;-74
2021/11/27 12:07:43;;;;;;;0.00;0.00;;;16.40;75.60;;;;;;4959604;28;20472;-74
2021/11/27 12:10:14;;;;;;;0.00;0.00;;;16.80;73.80;;;;;;4956623;29;20391;-73
2021/11/27 12:12:43;;;;;;;0.00;0.00;;;17.20;73.20;;;;;;4956860;29;20031;-73
2021/11/27 12:15:11;;;;;;;0.00;0.00;;;17.50;76.10;;;;;;4956376;28;20334;-71
2021/11/27 12:18:01;;;;;;;0.00;0.00;;;18.00;71.90;;;;;;4957003;28;20437;-72
2021/11/27 12:20:41;;;;;;;0.00;0.00;;;18.30;69.50;;;;;;4956848;29;20027;-73
2021/11/27 12:23:25;;;;;;;0.00;0.00;;;18.30;69.00;;;;;;4956691;28;20024;-72
2021/11/27 12:26:06;;;;;;;0.00;0.00;;;18.50;69.10;;;;;;4955409;29;20074;-73
2021/11/27 12:28:37;;;;;;;0.00;0.00;;;18.80;68.70;;;;;;4956574;29;20055;-73
2021/11/27 12:31:05;;;;;;;0.00;0.00;;;18.90;66.60;;;;;;4955192;29;20034;-74
2021/11/27 12:33:57;;;;;;;0.00;0.00;;;18.80;66.40;;;;;;4956560;28;20043;-73
2021/11/27 12:36:29;;;;;;;0.00;0.00;;;19.00;67.00;;;;;;4956296;29;20027;-72
2021/11/27 12:39:30;;;;;;;0.00;0.00;;;19.40;66.90;;;;;;4964499;28;20366;-74
2021/11/27 12:42:05;;;;;;;0.00;0.00;;;19.70;66.10;;;;;;4964592;28;20027;-72
2021/11/27 12:44:45;;;;;;;0.00;0.00;;;19.60;65.40;;;;;;4963691;28;20507;-74
2021/11/27 12:47:16;;;;;;;0.00;0.00;;;19.20;65.10;;;;;;4964237;28;20027;-74
2021/11/27 12:49:45;;;;;;;0.00;0.00;;;18.70;65.70;;;;;;4964386;28;20023;-72
2021/11/27 12:52:10;;;;;;;0.00;0.00;;;18.20;66.70;;;;;;4964157;28;20042;-74
2021/11/27 12:54:49;;;;;;;0.00;0.00;;;17.70;67.40;;;;;;4963368;28;20039;-74
2021/11/27 12:57:17;;;;;;;0.00;0.00;;;17.10;67.90;;;;;;4964189;28;20106;-74
2021/11/27 12:59:44;;;;;;;0.00;0.00;;;16.60;69.70;;;;;;4963772;28;20500;-74
2021/11/27 13:02:17;;;;;;;0.00;0.00;;;16.20;70.90;;;;;;4963119;28;20027;-72
2021/11/27 13:04:46;;;;;;;0.00;0.00;;;15.80;72.00;;;;;;4963416;28;20045;-73
2021/11/27 13:07:12;;;;;;;0.00;0.00;;;15.50;73.10;;;;;;4946770;28;20027;-74
2021/11/27 13:09:38;;;;;;;0.00;0.00;;;15.30;74.10;;;;;;4969489;28;20041;-72
2021/11/27 13:12:12;;;;;;;0.00;0.00;;;15.10;74.80;;;;;;4974799;28;20023;-76